Tervuren, Belgium
Current Conditions -  °F | °C
As of 1:20 AM on Sunday 21 Dec 2014 (Local Time) from EBBR Reporting Station
Few Clouds Few Clouds  
Wind Chill: 36°   Ceiling: Unl
Heat Index: 41°   Visibility: 6mi
Dew Point: 36°   Wind: 8mph
Humidity: 81%   Direction: 230°SW
Pressure: 30.42"   Gusts: NA
Location:  50.82°N, 4.51°E
Report Text: EBBR 210020Z 23007KT 9999 FEW023 05/02 Q1030 NOSIG
Loading
Personal Weather Stations






























Interactive Weather Map New forecast layout! Learn more

10-Day Weather Forecast

Advertisements
Track Severe Weather on mobile